Shin-oh Maru — JG5594 — position and weather

sailwx.info

Track history (hours):
 
Tides and Currents Weather Stations Pressure Air Temp Water Temp Dewpoint Dewpoint Depression Visibility Wind Speed Wind Dir Waves Ship Positions

Shin-oh Maru

Last reported at 2016-Aug-26 20:33 UTC. Time now 2016-Aug-28 05:16 UTC.
Position N 35°45' E 141°00'.

Length 161 m; draft 6.8 m.

Type: Cargo ship. MMSI: 431100859.

Date/timePositionNaut miles runAvg speedWind from/ knotsBaromVisibWave heightAir tempDewpointWater temp
2016-Aug-26 20:33N 35°45' E 141°00'1818.3
2016-Aug-26 19:34N 35°29' E 140°50'2019.6
2016-Aug-26 18:33N 35°13' E 140°36'1919.4
2016-Aug-26 17:34N 34°60' E 140°18'1918.5
2016-Aug-26 16:31N 34°50' E 139°58'1616.4
2016-Aug-26 15:33N 34°59' E 139°42'1716.7
2016-Aug-26 14:33N 35°16' E 139°46'1312.7
2016-Aug-26 13:33N 35°28' E 139°49'10 9.8
2016-Aug-26 12:33N 35°38' E 139°46'0 0.0
2016-Aug-26 11:33N 35°38' E 139°46'0 0.0
2016-Aug-26 10:33N 35°38' E 139°46'0 0.0
2016-Aug-26 09:33N 35°38' E 139°46'0 0.0
2016-Aug-26 08:33N 35°38' E 139°46'0 0.0
2016-Aug-26 07:33N 35°38' E 139°46'3 2.8
2016-Aug-26 06:33N 35°35' E 139°47'4 2.0
2016-Aug-26 04:33N 35°34' E 139°52'0 0.0
2016-Aug-26 03:33N 35°34' E 139°52'0 0.0
2016-Aug-26 02:33N 35°34' E 139°52'0 0.0
2016-Aug-26 01:33N 35°34' E 139°52'0 0.0
2016-Aug-26 00:33N 35°34' E 139°52'0 0.0
2016-Aug-25 23:33N 35°34' E 139°52'0 0.0
2016-Aug-25 22:30N 35°34' E 139°52'0 0.0
2016-Aug-25 21:33N 35°34' E 139°52'0 0.0
2016-Aug-25 20:30N 35°34' E 139°52'0 0.0
2016-Aug-25 19:33N 35°34' E 139°52'0 0.0
2016-Aug-25 18:33N 35°34' E 139°52'0 0.0
2016-Aug-25 17:33N 35°34' E 139°52'0 0.0
2016-Aug-25 16:33N 35°34' E 139°52'0 0.0
2016-Aug-25 15:33N 35°34' E 139°52'0 0.0
2016-Aug-25 14:33N 35°34' E 139°52'0 0.0
2016-Aug-25 13:33N 35°34' E 139°52'0 0.0
2016-Aug-25 12:33N 35°34' E 139°52'0 0.0
2016-Aug-25 11:33N 35°34' E 139°52'0 0.0
2016-Aug-25 10:33N 35°34' E 139°52'0 0.1
2016-Aug-25 09:33N 35°34' E 139°52'0 0.0
2016-Aug-25 08:33N 35°34' E 139°52'1 1.0
2016-Aug-25 07:34N 35°34' E 139°51'6 5.6
2016-Aug-25 06:34N 35°38' E 139°46'0 0.0
2016-Aug-25 04:31N 35°38' E 139°46'7 7.8
2016-Aug-25 03:34N 35°33' E 139°53'9 9.1
2016-Aug-25 02:34N 35°25' E 139°47'1111.1
2016-Aug-25 01:34N 35°14' E 139°47'1717.0
2016-Aug-25 00:33N 34°57' E 139°43'1413.8
2016-Aug-24 23:33N 34°51' E 139°58'1716.6
2016-Aug-24 22:33N 34°60' E 140°15'1716.4
2016-Aug-24 21:33N 35°09' E 140°31'1717.6
2016-Aug-24 20:33N 35°23' E 140°45'2 1.4
2016-Aug-24 19:25N 35°22' E 140°43'1517.6
2016-Aug-24 18:33N 35°35' E 140°53'1817.6
2016-Aug-24 17:33N 35°51' E 141°02'1717.3
2016-Aug-24 16:33N 36°08' E 141°07'1817.3
2016-Aug-24 15:32N 36°25' E 141°12'1817.4
2016-Aug-24 14:30N 36°42' E 141°17'  
2016-Aug-19 23:13N 36°12' E 141°08'1319.3
2016-Aug-19 22:32N 35°59' E 141°04'1818.6
2016-Aug-19 21:33N 35°41' E 140°59'1918.9
2016-Aug-19 20:33N 35°25' E 140°48'1818.7
2016-Aug-19 19:33N 35°10' E 140°34'1817.5
2016-Aug-19 18:33N 34°59' E 140°17'1616.4
2016-Aug-19 17:33N 34°51' E 139°60'1514.9
2016-Aug-19 16:33N 34°58' E 139°43'1817.9
2016-Aug-19 15:33N 35°15' E 139°46'1313.3
2016-Aug-19 14:33N 35°28' E 139°49'10 9.8
2016-Aug-19 13:34N 35°38' E 139°46'0 0.0
2016-Aug-19 12:31N 35°38' E 139°46'0 0.0
2016-Aug-19 11:31N 35°38' E 139°46'0 0.0
2016-Aug-19 10:28N 35°38' E 139°46'0 0.0
2016-Aug-19 09:31N 35°38' E 139°46'0 0.0
2016-Aug-19 08:33N 35°38' E 139°46'1110.6
2016-Aug-19 07:33N 35°28' E 139°51'1312.6
2016-Aug-19 06:34N 35°16' E 139°46'1414.0
2016-Aug-19 05:33N 35°02' E 139°44'1413.9
2016-Aug-19 04:33N 34°52' E 139°56'1818.0
2016-Aug-19 03:33N 34°60' E 140°16'1816.8
2016-Aug-19 02:30N 35°11' E 140°32'1616.2
2016-Aug-19 01:31N 35°24' E 140°44'1716.2
2016-Aug-19 00:27N 35°37' E 140°58'1617.6
2016-Aug-18 23:33N 35°52' E 141°03'1818.0
2016-Aug-18 22:33N 36°10' E 141°07'1818.0
2016-Aug-18 21:33N 36°27' E 141°13'1918.7
2016-Aug-18 20:33N 36°45' E 141°19'  
Track history (hours):
 
Tides and Currents Weather Stations Pressure Air Temp Water Temp Dewpoint Dewpoint Depression Visibility Wind Speed Wind Dir Waves Ship Positions

Shin-oh Maru

Last reported at 2016-Aug-26 20:33 UTC. Time now 2016-Aug-28 05:16 UTC.
Position N 35°45' E 141°00'.

Length 161 m; draft 6.8 m.

Type: Cargo ship. MMSI: 431100859.

Date/timePositionNaut miles runAvg speedWind from/ knotsBaromVisibWave heightAir tempDewpointWater temp
2016-Aug-26 20:33N 35°45' E 141°00'1818.3
2016-Aug-26 19:34N 35°29' E 140°50'2019.6
2016-Aug-26 18:33N 35°13' E 140°36'1919.4
2016-Aug-26 17:34N 34°60' E 140°18'1918.5
2016-Aug-26 16:31N 34°50' E 139°58'1616.4
2016-Aug-26 15:33N 34°59' E 139°42'1716.7
2016-Aug-26 14:33N 35°16' E 139°46'1312.7
2016-Aug-26 13:33N 35°28' E 139°49'10 9.8
2016-Aug-26 12:33N 35°38' E 139°46'0 0.0
2016-Aug-26 11:33N 35°38' E 139°46'0 0.0
2016-Aug-26 10:33N 35°38' E 139°46'0 0.0
2016-Aug-26 09:33N 35°38' E 139°46'0 0.0
2016-Aug-26 08:33N 35°38' E 139°46'0 0.0
2016-Aug-26 07:33N 35°38' E 139°46'3 2.8
2016-Aug-26 06:33N 35°35' E 139°47'4 2.0
2016-Aug-26 04:33N 35°34' E 139°52'0 0.0
2016-Aug-26 03:33N 35°34' E 139°52'0 0.0
2016-Aug-26 02:33N 35°34' E 139°52'0 0.0
2016-Aug-26 01:33N 35°34' E 139°52'0 0.0
2016-Aug-26 00:33N 35°34' E 139°52'0 0.0
2016-Aug-25 23:33N 35°34' E 139°52'0 0.0
2016-Aug-25 22:30N 35°34' E 139°52'0 0.0
2016-Aug-25 21:33N 35°34' E 139°52'0 0.0
2016-Aug-25 20:30N 35°34' E 139°52'0 0.0
2016-Aug-25 19:33N 35°34' E 139°52'0 0.0
2016-Aug-25 18:33N 35°34' E 139°52'0 0.0
2016-Aug-25 17:33N 35°34' E 139°52'0 0.0
2016-Aug-25 16:33N 35°34' E 139°52'0 0.0
2016-Aug-25 15:33N 35°34' E 139°52'0 0.0
2016-Aug-25 14:33N 35°34' E 139°52'0 0.0
2016-Aug-25 13:33N 35°34' E 139°52'0 0.0
2016-Aug-25 12:33N 35°34' E 139°52'0 0.0
2016-Aug-25 11:33N 35°34' E 139°52'0 0.0
2016-Aug-25 10:33N 35°34' E 139°52'0 0.1
2016-Aug-25 09:33N 35°34' E 139°52'0 0.0
2016-Aug-25 08:33N 35°34' E 139°52'1 1.0
2016-Aug-25 07:34N 35°34' E 139°51'6 5.6
2016-Aug-25 06:34N 35°38' E 139°46'0 0.0
2016-Aug-25 04:31N 35°38' E 139°46'7 7.8
2016-Aug-25 03:34N 35°33' E 139°53'9 9.1
2016-Aug-25 02:34N 35°25' E 139°47'1111.1
2016-Aug-25 01:34N 35°14' E 139°47'1717.0
2016-Aug-25 00:33N 34°57' E 139°43'1413.8
2016-Aug-24 23:33N 34°51' E 139°58'1716.6
2016-Aug-24 22:33N 34°60' E 140°15'1716.4
2016-Aug-24 21:33N 35°09' E 140°31'1717.6
2016-Aug-24 20:33N 35°23' E 140°45'2 1.4
2016-Aug-24 19:25N 35°22' E 140°43'1517.6
2016-Aug-24 18:33N 35°35' E 140°53'1817.6
2016-Aug-24 17:33N 35°51' E 141°02'1717.3
2016-Aug-24 16:33N 36°08' E 141°07'1817.3
2016-Aug-24 15:32N 36°25' E 141°12'1817.4
2016-Aug-24 14:30N 36°42' E 141°17'  
2016-Aug-19 23:13N 36°12' E 141°08'1319.3
2016-Aug-19 22:32N 35°59' E 141°04'1818.6
2016-Aug-19 21:33N 35°41' E 140°59'1918.9
2016-Aug-19 20:33N 35°25' E 140°48'1818.7
2016-Aug-19 19:33N 35°10' E 140°34'1817.5
2016-Aug-19 18:33N 34°59' E 140°17'1616.4
2016-Aug-19 17:33N 34°51' E 139°60'1514.9
2016-Aug-19 16:33N 34°58' E 139°43'1817.9
2016-Aug-19 15:33N 35°15' E 139°46'1313.3
2016-Aug-19 14:33N 35°28' E 139°49'10 9.8
2016-Aug-19 13:34N 35°38' E 139°46'0 0.0
2016-Aug-19 12:31N 35°38' E 139°46'0 0.0
2016-Aug-19 11:31N 35°38' E 139°46'0 0.0
2016-Aug-19 10:28N 35°38' E 139°46'0 0.0
2016-Aug-19 09:31N 35°38' E 139°46'0 0.0
2016-Aug-19 08:33N 35°38' E 139°46'1110.6
2016-Aug-19 07:33N 35°28' E 139°51'1312.6
2016-Aug-19 06:34N 35°16' E 139°46'1414.0
2016-Aug-19 05:33N 35°02' E 139°44'1413.9
2016-Aug-19 04:33N 34°52' E 139°56'1818.0
2016-Aug-19 03:33N 34°60' E 140°16'1816.8
2016-Aug-19 02:30N 35°11' E 140°32'1616.2
2016-Aug-19 01:31N 35°24' E 140°44'1716.2
2016-Aug-19 00:27N 35°37' E 140°58'1617.6
2016-Aug-18 23:33N 35°52' E 141°03'1818.0
2016-Aug-18 22:33N 36°10' E 141°07'1818.0
2016-Aug-18 21:33N 36°27' E 141°13'1918.7
2016-Aug-18 20:33N 36°45' E 141°19'  

Dump ship's entire track history